createdAt,value
2023-04-15T00:02:07.026Z,3.1
2023-04-15T00:14:07.020Z,3.8
2023-04-15T00:26:07.044Z,4.9
2023-04-15T00:38:06.975Z,2.6
2023-04-15T00:50:06.972Z,2.5
2023-04-15T01:02:07.151Z,3.2
2023-04-15T01:14:07.066Z,3.2
2023-04-15T01:26:06.985Z,2.2
2023-04-15T01:38:06.989Z,1.9
2023-04-15T01:50:07.086Z,2.3
2023-04-15T02:02:07.101Z,2.7
2023-04-15T02:14:07.023Z,2.3
2023-04-15T02:26:07.111Z,2.6
2023-04-15T02:38:07.172Z,2.1
2023-04-15T02:50:07.068Z,1.9
2023-04-15T03:02:07.105Z,2.6
2023-04-15T03:14:07.112Z,0.8
2023-04-15T03:26:07.054Z,0.7
2023-04-15T03:38:06.982Z,1.2
2023-04-15T03:50:06.981Z,1.1
2023-04-15T04:02:07.120Z,1.1
2023-04-15T04:14:06.992Z,0.5
2023-04-15T04:26:07.076Z,0.5
2023-04-15T04:38:06.972Z,0.6
2023-04-15T04:50:07.005Z,0.9
2023-04-15T05:02:07.087Z,1.0
2023-04-15T05:14:07.060Z,1.4
2023-04-15T05:26:06.994Z,1.7
2023-04-15T05:38:07.099Z,1.6
2023-04-15T05:50:06.999Z,1.4
2023-04-15T06:02:07.143Z,1.4
2023-04-15T06:14:07.099Z,3.1
2023-04-15T06:26:06.981Z,4.5
2023-04-15T06:38:06.995Z,6.9
2023-04-15T06:50:06.997Z,7.7
2023-04-15T07:02:07.034Z,7.6
2023-04-15T07:14:06.982Z,8.1
2023-04-15T07:26:07.055Z,7.4
2023-04-15T07:38:06.979Z,7.8
2023-04-15T07:50:07.098Z,8.4
2023-04-15T08:02:11.122Z,9.1
2023-04-15T08:14:07.054Z,10.1
2023-04-15T08:26:07.056Z,10.3
2023-04-15T08:38:06.986Z,9.9
2023-04-15T08:50:07.045Z,9.9
2023-04-15T09:02:07.009Z,10.2
2023-04-15T09:14:07.045Z,10.0
2023-04-15T09:26:07.001Z,9.9
2023-04-15T09:38:06.988Z,10.3
2023-04-15T09:50:07.046Z,10.4
2023-04-15T10:02:07.100Z,10.7
2023-04-15T10:14:07.036Z,10.9
2023-04-15T10:26:07.061Z,11.0
2023-04-15T10:38:06.985Z,11.3
2023-04-15T10:50:07.046Z,11.3
2023-04-15T11:02:16.334Z,11.0
2023-04-15T11:14:07.076Z,11.1
2023-04-15T11:26:07.077Z,10.9
2023-04-15T11:38:06.978Z,10.7
2023-04-15T11:50:06.999Z,10.9
2023-04-15T12:02:07.073Z,10.6
2023-04-15T12:14:07.066Z,11.0
2023-04-15T12:26:06.994Z,9.9
2023-04-15T12:38:06.987Z,9.9
2023-04-15T12:50:06.974Z,9.5
2023-04-15T13:02:07.034Z,9.2
2023-04-15T13:14:07.262Z,8.9
2023-04-15T13:26:06.983Z,8.9
2023-04-15T13:38:07.037Z,8.7
2023-04-15T13:50:07.097Z,8.5
2023-04-15T14:02:07.165Z,8.2
2023-04-15T14:14:07.117Z,8.1
2023-04-15T14:26:06.993Z,7.9
2023-04-15T14:38:07.011Z,8.2
2023-04-15T14:50:07.029Z,8.0
2023-04-15T15:02:07.031Z,8.0
2023-04-15T15:14:07.017Z,8.0
2023-04-15T15:26:10.779Z,7.9
2023-04-15T15:38:06.990Z,7.8
2023-04-15T15:50:07.106Z,7.7
2023-04-15T16:02:07.600Z,7.6
2023-04-15T16:14:06.980Z,7.5
2023-04-15T16:26:07.062Z,7.4
2023-04-15T16:38:07.004Z,7.3
2023-04-15T16:50:06.990Z,7.3
2023-04-15T17:02:06.994Z,7.3
2023-04-15T17:14:07.643Z,7.3
2023-04-15T17:26:07.006Z,7.3
2023-04-15T17:38:07.067Z,7.3
2023-04-15T17:50:07.409Z,7.2
2023-04-15T18:02:07.020Z,7.2
2023-04-15T18:14:07.331Z,7.1
2023-04-15T18:26:06.989Z,7.0
2023-04-15T18:38:07.095Z,7.0
2023-04-15T18:50:06.985Z,7.0
2023-04-15T19:02:07.043Z,7.0
2023-04-15T19:14:06.996Z,7.0
2023-04-15T19:26:14.124Z,6.9
2023-04-15T19:38:07.025Z,6.9
2023-04-15T19:50:06.988Z,6.9
2023-04-15T20:02:07.138Z,6.8
2023-04-15T20:14:06.996Z,6.8
2023-04-15T20:26:07.042Z,6.7
2023-04-15T20:38:07.098Z,6.7
2023-04-15T20:50:07.002Z,6.6
2023-04-15T21:02:07.087Z,6.6
2023-04-15T21:14:07.097Z,6.5
2023-04-15T21:26:07.003Z,6.5
2023-04-15T21:38:07.087Z,6.4
2023-04-15T21:50:07.087Z,6.3
2023-04-15T22:02:07.092Z,6.2
2023-04-15T22:14:07.088Z,6.2
2023-04-15T22:26:06.981Z,6.2
2023-04-15T22:38:07.006Z,6.1
2023-04-15T22:50:07.046Z,6.1
2023-04-15T23:02:07.111Z,6.1
2023-04-15T23:14:06.985Z,6.0
2023-04-15T23:26:06.991Z,6.0
2023-04-15T23:38:07.070Z,6.0
2023-04-15T23:50:06.984Z,6.0
